createdAt,value
2019-03-22T16:59:55.831Z,45.80
2019-03-22T17:05:15.349Z,49.20
2019-03-22T17:08:08.432Z,46.70
2019-03-22T17:10:56.925Z,47.00
2019-03-22T17:13:49.601Z,48.70
2019-03-22T17:16:38.761Z,48.90
2019-03-22T17:19:27.181Z,49.50
2019-03-22T17:22:16.257Z,52.30
2019-03-22T17:25:06.318Z,56.20
2019-03-22T17:27:55.161Z,58.60
2019-03-22T17:30:44.560Z,62.30
2019-03-22T17:33:34.905Z,65.00
2019-03-22T17:36:26.498Z,66.80
2019-03-22T17:39:17.289Z,68.00
2019-03-22T17:42:06.778Z,68.50
2019-03-22T17:44:54.910Z,68.10
2019-03-22T17:47:43.580Z,69.00
2019-03-22T17:50:32.427Z,70.30
2019-03-22T17:53:20.612Z,70.60
2019-03-22T17:56:09.111Z,71.00
2019-03-22T17:58:57.743Z,71.50
2019-03-22T18:01:46.514Z,71.40
2019-03-22T18:04:34.957Z,71.70
2019-03-22T18:07:23.198Z,71.50
2019-03-22T18:10:12.216Z,71.90
2019-03-22T18:13:00.917Z,72.00
2019-03-22T18:15:49.691Z,72.30
2019-03-22T18:18:38.456Z,72.20
2019-03-22T18:21:27.178Z,72.40
2019-03-22T18:24:16.327Z,72.80
2019-03-22T18:27:04.993Z,73.00
2019-03-22T18:29:53.421Z,73.30
2019-03-22T18:32:41.882Z,73.50
2019-03-22T18:35:31.257Z,73.80
2019-03-22T18:38:19.482Z,73.80
2019-03-22T18:41:07.953Z,73.70
2019-03-22T18:43:57.259Z,74.20
2019-03-22T18:46:46.782Z,74.40
2019-03-22T18:49:35.684Z,74.70
2019-03-22T18:52:24.508Z,74.90
2019-03-22T18:55:13.484Z,75.10
2019-03-22T18:58:01.731Z,75.30
2019-03-22T19:00:50.224Z,75.60
2019-03-22T19:03:38.869Z,75.70
2019-03-22T19:06:27.567Z,76.10
2019-03-22T19:09:15.826Z,76.10
2019-03-22T19:12:04.363Z,76.00
2019-03-22T19:14:53.225Z,76.20
2019-03-22T19:17:44.253Z,76.30
2019-03-22T19:20:33.444Z,76.60
2019-03-22T19:23:21.970Z,76.60
2019-03-22T19:26:11.049Z,76.80
2019-03-22T19:28:59.144Z,76.90
2019-03-22T19:32:13.234Z,76.90
2019-03-22T19:34:56.803Z,76.80
2019-03-22T19:37:46.502Z,77.00
2019-03-22T19:40:34.889Z,77.00
2019-03-22T19:43:23.627Z,77.20
2019-03-22T19:46:11.893Z,77.10
2019-03-22T19:49:01.019Z,77.20
2019-03-22T19:51:49.538Z,78.10
2019-03-22T19:54:38.476Z,77.50
2019-03-22T19:57:26.753Z,77.50
2019-03-22T20:00:14.785Z,77.50
2019-03-22T20:03:03.354Z,77.60
2019-03-22T20:05:52.274Z,77.70
2019-03-22T20:08:40.911Z,77.60
2019-03-22T20:11:30.262Z,77.70
2019-03-22T20:14:21.299Z,77.70
2019-03-22T20:17:09.932Z,77.70
2019-03-22T20:19:58.702Z,77.80
2019-03-22T20:22:47.340Z,77.90
2019-03-22T20:25:36.110Z,77.80
2019-03-22T20:28:24.888Z,77.90
2019-03-22T20:31:13.443Z,77.80
2019-03-22T20:34:02.245Z,78.00
2019-03-22T20:36:50.747Z,78.10
2019-03-22T20:39:42.194Z,79.00
2019-03-22T20:42:30.464Z,78.20
2019-03-22T20:45:23.940Z,78.30
2019-03-22T20:48:10.163Z,78.10
2019-03-22T20:50:58.989Z,78.60
2019-03-22T20:53:47.356Z,77.90
2019-03-22T20:56:35.487Z,77.90
2019-03-22T20:59:24.420Z,77.90
2019-03-22T21:02:13.154Z,77.90
2019-03-22T21:05:01.803Z,78.10
2019-03-22T21:07:50.252Z,78.00
2019-03-22T21:10:39.366Z,78.10
2019-03-22T21:13:28.295Z,78.10
2019-03-22T21:16:16.789Z,78.20
2019-03-22T21:19:05.063Z,77.90
2019-03-22T21:21:53.719Z,78.10
2019-03-22T21:24:42.094Z,78.20
2019-03-22T21:27:30.925Z,78.40
2019-03-22T21:30:19.140Z,78.40
2019-03-22T21:33:08.222Z,78.40
2019-03-22T21:35:57.045Z,78.30
2019-03-22T21:38:45.875Z,78.40
2019-03-22T21:41:34.973Z,78.40
2019-03-22T21:44:23.644Z,78.50
2019-03-22T21:47:11.983Z,78.40
2019-03-22T21:50:01.041Z,78.50
2019-03-22T21:52:49.574Z,78.40
2019-03-22T21:55:38.734Z,78.60
2019-03-22T21:58:27.909Z,78.60
2019-03-22T22:01:16.912Z,78.70
2019-03-22T22:04:05.732Z,78.70
2019-03-22T22:06:54.801Z,78.80
2019-03-22T22:09:43.357Z,78.80
2019-03-22T22:12:31.482Z,78.90
2019-03-22T22:15:20.238Z,78.90
2019-03-22T22:18:08.799Z,78.90
2019-03-22T22:20:56.774Z,79.00
2019-03-22T22:23:45.392Z,79.00
2019-03-22T22:26:33.739Z,79.00
2019-03-22T22:29:22.748Z,79.00
2019-03-22T22:32:11.231Z,79.90
2019-03-22T22:34:59.766Z,79.20
2019-03-22T22:37:48.578Z,79.30
2019-03-22T22:40:37.218Z,79.20
2019-03-22T22:43:25.976Z,79.30
2019-03-22T22:46:15.744Z,79.30
2019-03-22T22:49:09.022Z,79.40
2019-03-22T22:51:58.386Z,79.30
2019-03-22T22:54:47.446Z,79.40
2019-03-22T22:57:36.106Z,79.40
2019-03-22T23:00:26.305Z,79.30
2019-03-22T23:03:14.944Z,79.30
2019-03-22T23:06:09.294Z,79.40
2019-03-22T23:08:56.456Z,79.20
2019-03-22T23:11:45.838Z,79.40
2019-03-22T23:14:36.905Z,79.40
2019-03-22T23:17:25.739Z,79.40
2019-03-22T23:20:15.212Z,79.40
2019-03-22T23:23:04.082Z,79.40
2019-03-22T23:25:54.975Z,79.40
2019-03-22T23:28:44.003Z,79.40
2019-03-22T23:31:32.864Z,79.30
2019-03-22T23:34:21.279Z,79.50
2019-03-22T23:37:10.360Z,79.70
2019-03-22T23:39:58.836Z,79.50
2019-03-22T23:42:47.637Z,79.40
2019-03-22T23:45:35.626Z,79.50
2019-03-22T23:48:24.385Z,79.40
2019-03-22T23:51:12.625Z,79.40
2019-03-22T23:54:01.121Z,79.50
2019-03-22T23:56:50.127Z,79.50
2019-03-22T23:59:39.061Z,79.60
